Time;durP1;ratioP1;P1;durP2;ratioP2;P2;SDS_P1;SDS_P2;PMS_P1;PMS_P2;Temp;Humidity;BMP_temperature;BMP_pressure;BME280_temperature;BME280_humidity;BME280_pressure;Samples;Min_cycle;Max_cycle;Signal;HPM_P1;HPM_P2
2022/01/26 00:06:31;;;;;;;18.55;8.05;;;;;;;-4.45;54.54;100282.69;4935977;29;20688;-82
2022/01/26 00:08:57;;;;;;;16.27;6.53;;;;;;;-4.44;54.13;100278.63;4935931;29;20228;-83
2022/01/26 00:11:23;;;;;;;16.52;6.88;;;;;;;-5.16;53.73;100133.66;4935227;29;20260;-83
2022/01/26 00:13:49;;;;;;;17.23;7.38;;;;;;;-5.44;53.62;100077.78;4935836;29;20178;-82
2022/01/26 00:16:36;;;;;;;17.20;6.43;;;;;;;-4.25;53.81;100272.63;4936092;29;20196;-82
2022/01/26 00:19:04;;;;;;;17.92;6.47;;;;;;;-4.33;53.69;100276.69;4935490;29;20172;-82
2022/01/26 00:21:43;;;;;;;20.33;8.60;;;;;;;-5.52;53.26;100056.28;4919554;29;20181;-83
2022/01/26 00:29:12;;;;;;;19.33;7.77;;;;;;;-4.57;52.57;100219.53;4934278;29;20225;-82
2022/01/26 00:40:08;;;;;;;17.70;7.00;;;;;;;-4.52;52.57;100215.13;5001537;28;20558;-82
2022/01/26 00:42:38;;;;;;;16.05;7.28;;;;;;;-4.19;52.73;100268.38;5002242;28;20169;-82
2022/01/26 00:45:05;;;;;;;17.88;6.05;;;;;;;-4.81;52.61;100162.41;4996041;28;20174;-82
2022/01/26 00:47:30;;;;;;;17.38;5.55;;;;;;;-4.90;52.68;100144.06;4996492;28;20171;-83
2022/01/26 00:50:00;;;;;;;12.90;5.60;;;;;;;-4.17;52.47;100248.06;4995879;28;20199;-82
2022/01/26 00:52:37;;;;;;;17.55;6.65;;;;;;;-5.75;52.56;99992.72;4996316;28;20558;-82
2022/01/26 00:55:04;;;;;;;17.27;7.68;;;;;;;-5.83;52.85;99983.56;4996610;28;20187;-82
2022/01/26 00:57:30;;;;;;;11.75;5.03;;;;;;;-6.69;52.60;99827.47;4999586;28;20219;-82
2022/01/26 00:59:57;;;;;;;17.67;7.67;;;;;;;-4.73;52.99;100187.97;4997911;28;20167;-82
2022/01/26 01:02:22;;;;;;;18.10;8.10;;;;;;;-5.73;53.02;100003.63;4998391;28;20159;-83
2022/01/26 01:04:48;;;;;;;18.03;7.80;;;;;;;-6.28;52.83;99910.16;4997430;28;20176;-81
2022/01/26 01:07:18;;;;;;;12.43;4.57;;;;;;;-4.69;53.24;100177.72;4997780;28;20167;-82
2022/01/26 01:09:44;;;;;;;22.33;8.02;;;;;;;-4.59;53.09;100197.84;4998950;28;20673;-83
2022/01/26 01:12:10;;;;;;;14.50;6.43;;;;;;;-6.31;52.59;99900.84;4997745;28;20170;-83
2022/01/26 01:14:38;;;;;;;23.92;8.95;;;;;;;-5.51;52.91;100047.31;4997841;28;20254;-83
2022/01/26 01:17:07;;;;;;;13.40;5.35;;;;;;;-4.45;53.24;100229.94;4998056;28;20191;-83
2022/01/26 01:19:45;;;;;;;24.10;9.60;;;;;;;-4.47;52.81;100202.59;4997898;28;20164;-82
2022/01/26 01:33:03;;;;;;;19.15;7.05;;;;;;;-4.71;52.66;100157.81;4935716;29;20219;-83
2022/01/26 01:35:30;;;;;;;13.07;5.47;;;;;;;-4.54;52.34;100179.47;4937182;29;20210;-82
2022/01/26 01:37:56;;;;;;;19.38;8.52;;;;;;;-4.94;51.74;100099.97;4937058;29;20197;-83
2022/01/26 01:40:21;;;;;;;9.53;4.50;;;;;;;-4.58;51.41;100165.00;4936468;29;20248;-83
2022/01/26 01:42:47;;;;;;;19.50;7.70;;;;;;;-4.67;51.42;100144.22;4935811;29;20197;-83
2022/01/26 01:45:12;;;;;;;20.63;8.00;;;;;;;-5.57;50.34;99968.59;4935377;29;20181;-82
2022/01/26 01:47:38;;;;;;;18.93;7.00;;;;;;;-5.21;50.12;100013.81;4945969;29;20181;-83
2022/01/26 01:50:11;;;;;;;15.73;7.03;;;;;;;-4.10;49.89;100199.34;4940373;29;20649;-81
2022/01/26 01:52:37;;;;;;;21.42;7.72;;;;;;;-4.85;49.59;100066.47;4937885;29;20181;-82
2022/01/26 01:55:04;;;;;;;18.70;7.53;;;;;;;-4.91;49.08;100041.97;4937621;29;20200;-83
2022/01/26 01:57:30;;;;;;;21.17;9.10;;;;;;;-4.15;49.31;100170.75;4937147;29;20172;-82
2022/01/26 01:59:56;;;;;;;18.05;7.88;;;;;;;-4.06;49.06;100161.88;4936948;29;20177;-82
2022/01/26 02:02:21;;;;;;;12.40;5.57;;;;;;;-4.74;49.18;100058.69;4989813;28;20196;-83
2022/01/26 02:04:47;;;;;;;17.47;7.30;;;;;;;-4.75;49.23;100041.25;4996814;28;20163;-83
2022/01/26 02:07:13;;;;;;;15.73;7.33;;;;;;;-6.26;49.10;99783.19;4995344;28;20182;-84
2022/01/26 02:09:39;;;;;;;11.88;5.22;;;;;;;-4.30;49.62;100121.38;4979619;28;20198;-82
2022/01/26 02:12:16;;;;;;;14.83;6.77;;;;;;;-4.09;49.12;100171.44;4996256;28;20571;-82
2022/01/26 02:14:48;;;;;;;14.93;5.97;;;;;;;-5.00;49.34;100008.84;4997613;28;20164;-82
2022/01/26 02:17:57;;;;;;;12.25;5.45;;;;;;;-4.83;49.26;100032.94;4996687;28;20522;-82
2022/01/26 02:53:15;;;;;;;16.67;7.35;;;;;;;-4.02;48.21;100092.28;4995184;28;20178;-82
2022/01/26 02:55:34;;;;;;;21.00;7.75;;;;;;;-4.52;48.22;100005.16;4995028;28;20217;-83
2022/01/26 03:03:19;;;;;;;15.32;6.15;;;;;;;-3.69;48.51;100152.88;4994193;28;20612;-82
2022/01/26 03:05:52;;;;;;;19.98;7.70;;;;;;;-7.60;48.23;99447.19;4994028;28;20167;-82
2022/01/26 03:08:27;;;;;;;19.33;8.07;;;;;;;-5.12;48.90;99884.09;4994144;28;20627;-83
2022/01/26 03:10:55;;;;;;;21.75;7.95;;;;;;;-3.54;48.56;100161.97;4977025;28;20661;-82
2022/01/26 03:13:26;;;;;;;21.98;8.02;;;;;;;-4.56;49.13;99969.34;4995329;28;20164;-83
2022/01/26 03:15:57;;;;;;;22.35;8.55;;;;;;;-6.48;48.58;99648.50;4994591;28;20160;-83
2022/01/26 03:18:41;;;;;;;21.20;8.55;;;;;;;-5.61;48.25;99749.53;4994605;28;20183;-83
2022/01/26 03:21:09;;;;;;;19.58;9.07;;;;;;;-6.47;48.09;99568.97;4994693;28;20155;-83
2022/01/26 03:29:25;;;;;;;16.70;7.32;;;;;;;-3.39;48.58;100098.44;4994818;28;20209;-82
2022/01/26 03:34:18;;;;;;;11.00;5.20;;;;;;;-3.28;48.07;100096.41;5003531;28;20775;-80
2022/01/26 03:36:52;;;;;;;17.73;7.63;;;;;;;-3.67;47.98;100027.78;5000246;28;20175;-83
2022/01/26 03:39:20;;;;;;;19.83;7.57;;;;;;;-3.16;48.21;100119.16;4994828;28;20217;-83
2022/01/26 03:41:50;;;;;;;25.17;10.18;;;;;;;-3.28;48.13;100090.59;4993598;28;20195;-82
2022/01/26 03:44:16;;;;;;;31.08;10.80;;;;;;;-3.12;48.53;100109.72;4994776;28;20172;-83
2022/01/26 03:46:43;;;;;;;21.60;8.70;;;;;;;-3.17;49.07;100118.25;4995147;28;20634;-82
2022/01/26 03:49:09;;;;;;;22.52;9.70;;;;;;;-3.51;49.15;100042.66;4995776;28;20198;-83
2022/01/26 03:51:35;;;;;;;18.05;7.03;;;;;;;-3.04;49.31;100118.84;4994074;28;20170;-84
2022/01/26 03:54:03;;;;;;;18.17;6.77;;;;;;;-3.13;50.04;100112.91;4993588;28;20172;-83
2022/01/26 03:56:28;;;;;;;18.20;8.48;;;;;;;-3.77;50.22;100029.97;4993882;28;20168;-83
2022/01/26 03:58:54;;;;;;;27.53;11.30;;;;;;;-3.08;50.73;100121.69;4993945;28;20233;-83
2022/01/26 04:01:19;;;;;;;39.67;15.00;;;;;;;-3.31;50.84;100060.53;4993670;28;20218;-83
2022/01/26 04:03:45;;;;;;;19.70;8.03;;;;;;;-3.01;50.91;100121.66;4993988;28;20171;-83
2022/01/26 04:06:10;;;;;;;16.73;7.97;;;;;;;-2.96;50.96;100107.28;4993720;28;20174;-82
2022/01/26 04:08:38;;;;;;;14.57;6.53;;;;;;;-4.68;50.69;99833.78;4993938;28;20213;-82
2022/01/26 04:13:38;;;;;;;11.65;5.10;;;;;;;-4.02;49.65;99946.44;4997897;28;20182;-82
2022/01/26 04:16:06;;;;;;;12.77;6.57;;;;;;;-3.88;48.76;99951.28;4997054;28;20616;-82
2022/01/26 04:18:37;;;;;;;17.17;7.40;;;;;;;-4.12;48.21;99914.03;4996756;28;20619;-82
2022/01/26 04:21:14;;;;;;;13.43;5.65;;;;;;;-3.35;48.23;100063.44;4996312;28;20234;-83
2022/01/26 04:26:10;;;;;;;17.67;7.80;;;;;;;-3.36;47.98;100062.53;4998582;28;20174;-82
2022/01/26 04:28:42;;;;;;;17.75;6.80;;;;;;;-3.36;48.00;100042.75;4998102;28;20517;-83
2022/01/26 04:31:09;;;;;;;17.85;8.02;;;;;;;-3.20;48.14;100090.69;4998615;28;20573;-82
2022/01/26 04:33:34;;;;;;;15.38;6.82;;;;;;;-6.76;48.31;99480.53;4997462;28;20234;-83
2022/01/26 04:36:02;;;;;;;18.07;7.73;;;;;;;-3.08;48.90;100116.75;4998329;28;20160;-82
2022/01/26 04:38:37;;;;;;;13.60;5.57;;;;;;;-4.32;47.87;99909.41;4998439;28;20213;-83
2022/01/26 04:43:32;;;;;;;15.93;6.70;;;;;;;-5.19;48.45;99775.53;4997525;28;20174;-83
2022/01/26 04:45:57;;;;;;;14.27;5.85;;;;;;;-4.44;48.82;99888.28;4998628;28;20491;-83
2022/01/26 04:48:25;;;;;;;18.37;5.77;;;;;;;-3.66;48.77;100019.66;4997773;28;20616;-83
2022/01/26 04:50:51;;;;;;;15.55;5.75;;;;;;;-6.31;48.93;99550.28;4997273;28;20655;-83
2022/01/26 04:53:17;;;;;;;12.93;5.40;;;;;;;-3.28;49.32;100064.25;4996908;28;20175;-83
2022/01/26 04:55:42;;;;;;;12.90;5.13;;;;;;;-5.86;48.74;99631.69;4997174;28;20175;-82
2022/01/26 04:58:08;;;;;;;13.53;6.03;;;;;;;-5.61;48.44;99650.03;4997521;28;20671;-83
2022/01/26 05:00:33;;;;;;;17.90;8.50;;;;;;;-4.29;48.34;99853.78;4997598;28;20217;-83
2022/01/26 05:02:59;;;;;;;22.87;8.17;;;;;;;-4.87;47.91;99752.78;4996624;28;20620;-83
2022/01/26 05:05:24;;;;;;;21.47;9.13;;;;;;;-5.10;47.56;99732.13;4995241;28;20187;-83
2022/01/26 05:07:50;;;;;;;12.93;5.83;;;;;;;-6.28;47.12;99553.97;4996410;28;20156;-82
2022/01/26 05:10:15;;;;;;;17.53;7.57;;;;;;;-6.37;48.00;99532.38;4996238;28;20702;-83
2022/01/26 05:12:41;;;;;;;20.37;8.57;;;;;;;-3.28;48.11;100076.63;4995316;28;20170;-83
2022/01/26 05:15:07;;;;;;;18.47;7.23;;;;;;;-3.79;48.73;100016.56;4994364;28;20257;-82
2022/01/26 05:17:33;;;;;;;18.70;8.40;;;;;;;-5.38;48.17;99693.72;5002022;28;20170;-80
2022/01/26 05:20:00;;;;;;;26.10;11.20;;;;;;;-4.05;48.59;99951.03;5007821;28;20164;-82
2022/01/26 05:22:26;;;;;;;29.92;12.82;;;;;;;-3.13;49.12;100107.09;4999693;28;20243;-83
2022/01/26 05:24:52;;;;;;;17.40;7.73;;;;;;;-4.97;49.75;99796.06;4996696;28;20179;-83
2022/01/26 05:27:18;;;;;;;23.63;8.18;;;;;;;-4.26;50.16;99922.44;4996119;28;20179;-82
2022/01/26 05:29:44;;;;;;;22.60;9.17;;;;;;;-5.66;50.41;99643.72;4996067;28;20199;-83
2022/01/26 05:32:09;;;;;;;16.77;7.97;;;;;;;-7.03;50.74;99417.53;4994552;28;20175;-82
2022/01/26 05:34:34;;;;;;;16.47;6.23;;;;;;;-3.84;51.21;99956.72;4995869;28;20696;-82
2022/01/26 05:37:00;;;;;;;19.60;8.50;;;;;;;-4.23;50.88;99906.31;4978420;28;20171;-82
2022/01/26 05:39:25;;;;;;;15.13;6.83;;;;;;;-4.90;50.87;99757.41;4996702;28;20167;-83
2022/01/26 05:41:51;;;;;;;19.63;9.50;;;;;;;-6.80;50.86;99435.69;4995659;28;20682;-82
2022/01/26 05:44:16;;;;;;;23.87;9.80;;;;;;;-3.23;50.66;100079.56;4995519;28;20164;-82
2022/01/26 05:46:48;;;;;;;30.57;11.93;;;;;;;-6.88;51.12;99415.19;4995547;28;20222;-82
2022/01/26 05:49:16;;;;;;;21.50;9.48;;;;;;;-5.95;51.43;99578.94;4995834;28;20245;-82
2022/01/26 05:51:45;;;;;;;27.42;12.52;;;;;;;-2.85;51.21;100148.94;4995609;28;20160;-82
2022/01/26 05:54:11;;;;;;;28.38;12.25;;;;;;;-3.14;51.41;100088.00;4995521;28;20166;-83
2022/01/26 05:56:36;;;;;;;32.75;12.82;;;;;;;-2.90;51.19;100104.56;4995767;28;20167;-83
2022/01/26 05:59:02;;;;;;;34.83;14.63;;;;;;;-2.97;51.13;100114.56;4994876;28;20166;-83
2022/01/26 06:01:27;;;;;;;24.63;9.80;;;;;;;-4.68;51.14;99794.28;4996525;28;20171;-82
2022/01/26 06:03:53;;;;;;;19.27;5.93;;;;;;;-3.89;50.64;99938.03;4978942;28;20175;-82
2022/01/26 06:06:19;;;;;;;23.90;10.93;;;;;;;-5.22;50.46;99705.28;4978649;28;20172;-82
2022/01/26 06:08:44;;;;;;;28.27;10.00;;;;;;;-2.95;50.23;100108.16;4995790;28;20171;-82
2022/01/26 06:11:09;;;;;;;25.10;9.27;;;;;;;-5.02;49.65;99747.75;4995928;28;20171;-83
2022/01/26 06:13:35;;;;;;;20.20;7.93;;;;;;;-6.10;49.92;99550.19;4997801;28;20178;-83
2022/01/26 06:16:00;;;;;;;21.93;9.97;;;;;;;-4.53;49.96;99870.88;4997592;28;20168;-82
2022/01/26 06:18:26;;;;;;;35.03;13.00;;;;;;;-5.46;50.00;99647.63;4977915;28;20340;-83
2022/01/26 06:20:52;;;;;;;30.00;12.10;;;;;;;-2.77;49.39;100100.19;4995408;28;20163;-82
2022/01/26 06:23:17;;;;;;;40.63;13.27;;;;;;;-2.83;49.68;100067.38;4995913;28;20155;-82
2022/01/26 06:25:43;;;;;;;20.93;8.17;;;;;;;-5.38;49.35;99651.78;4995792;28;20175;-82
2022/01/26 06:28:12;;;;;;;32.47;13.30;;;;;;;-4.93;49.54;99679.66;4995254;28;20151;-87
2022/01/26 06:30:39;;;;;;;27.23;11.90;;;;;;;-2.14;48.40;100116.00;4994790;28;20195;-83
2022/01/26 06:33:07;;;;;;;28.00;11.32;;;;;;;-2.14;48.79;100123.44;4993792;28;20172;-82
2022/01/26 06:35:34;;;;;;;19.08;8.88;;;;;;;-2.93;48.05;99975.47;4994627;28;20187;-83
2022/01/26 06:38:00;;;;;;;21.73;8.77;;;;;;;-4.03;48.49;99784.00;4994428;28;20210;-83
2022/01/26 06:40:26;;;;;;;22.30;8.73;;;;;;;-5.79;47.94;99459.09;4993297;28;20223;-83
2022/01/26 06:43:01;;;;;;;25.67;10.80;;;;;;;-4.20;47.40;99722.91;5013425;28;20210;-83
2022/01/26 06:45:41;;;;;;;25.08;11.13;;;;;;;-1.96;47.67;100118.78;4995732;28;20560;-83
2022/01/26 06:50:51;;;;;;;27.20;11.48;;;;;;;-1.81;47.58;100109.53;5014578;28;20197;-83
2022/01/26 06:53:17;;;;;;;34.10;14.23;;;;;;;-2.41;47.72;100027.22;5013751;28;20579;-83
2022/01/26 06:55:42;;;;;;;23.37;9.10;;;;;;;-2.89;48.16;99937.94;5014350;28;20167;-83
2022/01/26 06:58:08;;;;;;;24.57;10.40;;;;;;;-1.84;48.34;100120.00;5014003;28;20229;-83
2022/01/26 07:00:33;;;;;;;29.70;10.33;;;;;;;-1.86;48.32;100111.53;5015599;28;20234;-83
2022/01/26 07:02:59;;;;;;;20.80;10.27;;;;;;;-5.00;48.60;99588.41;5015593;28;20556;-83
2022/01/26 07:05:24;;;;;;;24.20;11.60;;;;;;;-4.47;48.88;99651.72;5014155;28;20159;-84
2022/01/26 07:07:50;;;;;;;14.83;6.03;;;;;;;-1.71;49.47;100121.28;5008815;28;20309;-82
2022/01/26 07:10:16;;;;;;;24.80;10.27;;;;;;;-4.66;49.68;99612.56;5012600;28;20191;-83
2022/01/26 07:12:41;;;;;;;25.55;10.20;;;;;;;-3.94;50.08;99721.56;4987852;28;20179;-82
2022/01/26 07:23:12;;;;;;;18.48;7.82;;;;;;;-4.23;48.85;99627.09;5014665;28;20210;-83
2022/01/26 07:25:38;;;;;;;23.35;9.80;;;;;;;-4.19;48.44;99564.91;5013193;28;20196;-83
2022/01/26 07:28:05;;;;;;;24.33;10.13;;;;;;;-2.78;48.65;99791.28;5005510;28;20249;-82
2022/01/26 07:30:37;;;;;;;15.00;7.18;;;;;;;-1.18;48.74;100107.69;5005216;28;20218;-81
2022/01/26 07:33:03;;;;;;;23.50;9.48;;;;;;;-2.36;48.60;99882.31;5009877;28;20186;-84
2022/01/26 07:35:29;;;;;;;21.38;9.20;;;;;;;-1.23;47.95;100066.63;5009439;28;20300;-82
2022/01/26 07:37:58;;;;;;;16.00;6.33;;;;;;;-1.53;48.67;100008.97;5017189;28;20206;-83
2022/01/26 07:40:24;;;;;;;16.60;7.20;;;;;;;-1.97;48.12;99933.44;5019816;28;20236;-81
2022/01/26 07:42:49;;;;;;;22.30;7.20;;;;;;;-1.00;47.70;100097.13;4991128;28;20810;-84
2022/01/26 07:45:15;;;;;;;16.57;7.67;;;;;;;-2.25;47.94;99895.81;5012840;28;20644;-83
2022/01/26 07:47:40;;;;;;;18.87;8.10;;;;;;;-2.28;48.06;99845.94;5014598;28;20178;-84
2022/01/26 07:50:08;;;;;;;16.30;6.47;;;;;;;-2.24;47.63;99850.44;4995631;28;20186;-84
2022/01/26 07:52:38;;;;;;;21.67;8.30;;;;;;;-0.76;48.19;100097.06;5003290;28;20178;-83
2022/01/26 07:55:06;;;;;;;16.10;7.20;;;;;;;-3.85;48.49;99578.25;5008834;28;20204;-83
2022/01/26 07:57:32;;;;;;;21.20;8.63;;;;;;;-0.74;48.47;100098.06;5012575;28;20321;-82
2022/01/26 07:59:57;;;;;;;18.00;8.63;;;;;;;-2.05;48.15;99835.06;5012076;28;20703;-83
2022/01/26 08:02:23;;;;;;;17.37;7.87;;;;;;;-2.40;48.60;99777.06;5013166;28;20724;-83
2022/01/26 08:04:49;;;;;;;17.90;7.45;;;;;;;-2.23;48.61;99822.47;5013414;28;20297;-83
2022/01/26 08:07:14;;;;;;;20.80;9.77;;;;;;;-3.02;48.84;99716.28;5013238;28;20183;-83
2022/01/26 08:09:42;;;;;;;24.67;10.33;;;;;;;-4.10;49.50;99515.56;5013020;28;20183;-84
2022/01/26 08:12:08;;;;;;;60.90;22.00;;;;;;;-2.60;49.22;99723.75;4996589;28;20265;-84
2022/01/26 08:14:33;;;;;;;27.67;12.37;;;;;;;-2.73;49.34;99704.34;5011981;28;20174;-83
2022/01/26 08:16:59;;;;;;;24.57;10.47;;;;;;;-2.33;49.22;99742.97;5013408;28;20167;-83
2022/01/26 08:19:24;;;;;;;21.30;8.40;;;;;;;-2.45;49.99;99764.94;5012426;28;20536;-83
2022/01/26 08:21:50;;;;;;;28.70;11.17;;;;;;;-2.07;49.88;99809.25;5011523;28;20171;-84
2022/01/26 08:24:15;;;;;;;35.37;14.97;;;;;;;-1.20;49.28;99966.00;5013412;28;20171;-83
2022/01/26 08:26:46;;;;;;;23.00;11.13;;;;;;;-2.89;50.51;99665.50;5011386;28;20601;-83
2022/01/26 08:29:25;;;;;;;37.58;15.30;;;;;;;-2.78;50.14;99655.94;5012266;28;20244;-83
2022/01/26 08:31:51;;;;;;;27.65;12.18;;;;;;;-0.15;49.95;100079.00;5012390;28;20193;-83
2022/01/26 08:34:17;;;;;;;38.03;14.67;;;;;;;-0.49;50.33;100043.28;4994106;28;20706;-83
2022/01/26 08:36:43;;;;;;;26.15;10.82;;;;;;;-1.56;50.55;99884.53;5012075;28;20190;-83
2022/01/26 08:39:08;;;;;;;40.50;15.40;;;;;;;-1.30;50.92;99937.63;5010909;28;20237;-83
2022/01/26 08:41:34;;;;;;;39.43;15.47;;;;;;;-0.32;50.73;100102.97;5011090;28;20262;-83
2022/01/26 08:43:59;;;;;;;19.60;9.17;;;;;;;-1.87;51.15;99811.22;5011412;28;20259;-83
2022/01/26 08:46:24;;;;;;;22.87;9.43;;;;;;;-0.10;50.83;100104.31;4993910;28;20167;-82
2022/01/26 08:48:50;;;;;;;33.80;14.33;;;;;;;-0.51;50.52;100020.75;5012140;28;20159;-81
2022/01/26 08:51:17;;;;;;;25.20;11.03;;;;;;;-2.29;51.17;99733.50;5011777;28;20171;-81
2022/01/26 08:53:42;;;;;;;27.20;11.13;;;;;;;-0.18;50.76;100078.72;5011647;28;20171;-81
2022/01/26 08:56:07;;;;;;;29.40;11.03;;;;;;;0.12;51.16;100095.69;5012339;28;20541;-81
2022/01/26 08:58:33;;;;;;;27.47;10.80;;;;;;;-0.53;50.55;99966.66;5015069;28;20158;-81
2022/01/26 09:00:59;;;;;;;24.03;8.20;;;;;;;-2.21;51.13;99689.59;5014917;28;20652;-81
2022/01/26 09:03:25;;;;;;;32.55;12.13;;;;;;;-0.41;51.13;99976.13;5013913;28;20171;-81
2022/01/26 09:05:50;;;;;;;46.53;19.27;;;;;;;-1.76;50.25;99750.22;5016270;28;20173;-81
2022/01/26 09:08:17;;;;;;;24.93;11.63;;;;;;;-2.44;50.35;99625.41;5015005;28;20159;-81
2022/01/26 09:10:43;;;;;;;39.40;15.65;;;;;;;-1.18;50.44;99851.03;5014264;28;20276;-82
2022/01/26 09:13:09;;;;;;;25.07;10.60;;;;;;;-1.31;50.40;99829.97;4996939;28;20178;-82
2022/01/26 09:15:34;;;;;;;26.70;11.88;;;;;;;0.26;50.33;100070.47;4996709;28;20658;-81
2022/01/26 09:18:03;;;;;;;29.60;11.93;;;;;;;0.52;50.27;100082.88;5015193;28;20175;-81
2022/01/26 09:20:30;;;;;;;25.35;10.98;;;;;;;0.09;50.44;100003.31;5015430;28;20171;-82
2022/01/26 09:22:55;;;;;;;28.30;12.75;;;;;;;-0.17;49.82;99952.72;5015341;28;20166;-82
2022/01/26 09:25:20;;;;;;;27.93;11.07;;;;;;;-1.89;49.74;99629.97;5015017;28;20167;-82
2022/01/26 09:27:46;;;;;;;24.87;10.53;;;;;;;0.70;49.88;100096.16;4997929;28;20189;-82
2022/01/26 09:30:12;;;;;;;22.90;10.93;;;;;;;-0.62;49.69;99864.72;5013575;28;20217;-82
2022/01/26 09:32:38;;;;;;;30.13;12.73;;;;;;;-1.11;49.44;99764.81;5014552;28;20166;-80
2022/01/26 09:35:06;;;;;;;25.90;10.97;;;;;;;0.01;49.82;99969.34;4997862;28;20726;-82
2022/01/26 09:37:35;;;;;;;31.40;13.23;;;;;;;-0.53;49.32;99818.34;5015665;28;20186;-81
2022/01/26 09:40:01;;;;;;;27.95;11.38;;;;;;;-2.89;49.37;99459.97;5015525;28;20174;-82
2022/01/26 09:42:27;;;;;;;27.52;11.60;;;;;;;0.91;50.20;100083.16;5014825;28;20179;-83
2022/01/26 09:44:52;;;;;;;25.33;12.93;;;;;;;0.44;50.17;100009.94;5014672;28;20182;-82
2022/01/26 09:47:20;;;;;;;22.23;10.03;;;;;;;-1.17;49.71;99746.84;5014755;28;20163;-81
2022/01/26 09:49:46;;;;;;;37.50;14.90;;;;;;;0.12;49.90;99894.06;5015269;28;20252;-81
2022/01/26 09:52:15;;;;;;;35.50;14.77;;;;;;;1.27;49.63;100088.13;5014299;28;20422;-82
2022/01/26 09:54:42;;;;;;;78.87;28.90;;;;;;;1.25;49.59;100063.06;5014628;28;20168;-82
2022/01/26 09:57:08;;;;;;;37.47;15.87;;;;;;;0.58;50.68;100009.59;5017284;28;20413;-80
2022/01/26 09:59:33;;;;;;;49.50;20.30;;;;;;;-0.31;50.95;99843.59;5022442;28;20902;-81
2022/01/26 10:01:59;;;;;;;23.43;11.50;;;;;;;-1.26;50.93;99687.25;5014438;28;20643;-82
2022/01/26 10:04:28;;;;;;;18.97;9.13;;;;;;;1.05;51.18;100055.41;5014185;28;20537;-82
2022/01/26 10:07:25;;;;;;;16.20;7.60;;;;;;;0.96;51.98;100060.41;5015708;28;20402;-81
2022/01/26 10:18:04;;;;;;;16.43;7.77;;;;;;;1.15;51.69;100048.03;5013616;28;20412;-82
2022/01/26 10:20:43;;;;;;;22.47;9.23;;;;;;;1.16;51.90;100025.72;5014179;28;20416;-82
2022/01/26 10:23:17;;;;;;;26.57;12.57;;;;;;;-0.33;51.94;99796.19;5014326;28;20421;-82
2022/01/26 10:25:45;;;;;;;32.07;13.40;;;;;;;-0.65;51.99;99706.22;5013091;28;20414;-82
2022/01/26 10:28:14;;;;;;;21.40;10.47;;;;;;;-0.07;52.22;99808.53;5013166;28;20404;-82
2022/01/26 10:30:45;;;;;;;26.97;12.80;;;;;;;1.42;52.28;100043.03;4995865;28;20457;-82
2022/01/26 10:33:11;;;;;;;22.77;11.00;;;;;;;1.43;51.89;100049.75;5001109;28;20422;-82
2022/01/26 10:35:37;;;;;;;24.07;11.23;;;;;;;0.40;51.56;99843.56;5014716;28;20461;-81
2022/01/26 10:38:03;;;;;;;22.93;11.00;;;;;;;-1.17;52.09;99592.00;4998440;28;20418;-81
2022/01/26 10:40:29;;;;;;;29.40;13.20;;;;;;;1.69;52.45;100027.09;5013391;28;20159;-83
2022/01/26 10:43:08;;;;;;;19.87;10.67;;;;;;;0.85;52.32;99860.84;5013810;28;20430;-83
2022/01/26 10:45:56;;;;;;;35.50;15.37;;;;;;;1.94;52.09;100032.63;4995847;28;20409;-82
2022/01/26 10:48:38;;;;;;;26.40;11.77;;;;;;;2.01;52.06;100023.28;5012555;28;20421;-81
2022/01/26 10:53:46;;;;;;;23.17;10.27;;;;;;;1.59;52.17;99934.75;5013657;28;20497;-83
2022/01/26 10:56:12;;;;;;;19.73;9.63;;;;;;;0.60;52.51;99813.81;5012404;28;20406;-82
2022/01/26 10:58:38;;;;;;;23.00;11.27;;;;;;;-0.11;52.40;99655.59;5012275;28;20473;-81
2022/01/26 11:01:04;;;;;;;29.17;12.30;;;;;;;1.73;52.67;99956.78;5013093;28;20454;-81
2022/01/26 11:03:30;;;;;;;34.47;13.07;;;;;;;0.54;52.07;99721.16;5013860;28;20460;-82
2022/01/26 11:05:56;;;;;;;52.77;23.27;;;;;;;-0.16;52.56;99569.75;5013950;28;20552;-82
2022/01/26 11:08:24;;;;;;;34.73;12.80;;;;;;;-0.10;52.97;99631.59;5013769;28;20470;-81
2022/01/26 11:10:49;;;;;;;30.37;13.63;;;;;;;0.27;53.82;99671.44;4996623;28;20708;-82
2022/01/26 11:13:27;;;;;;;31.03;15.83;;;;;;;1.08;53.41;99791.44;5013035;28;20506;-83
2022/01/26 11:15:54;;;;;;;26.20;10.27;;;;;;;0.93;53.11;99751.13;5013888;28;20170;-83
2022/01/26 11:18:22;;;;;;;29.60;13.03;;;;;;;2.39;53.20;99981.59;5013663;28;20422;-82
2022/01/26 11:20:53;;;;;;;24.00;11.87;;;;;;;1.64;53.13;99916.03;4996861;28;20461;-82
2022/01/26 11:23:20;;;;;;;20.47;9.50;;;;;;;2.36;53.48;99974.72;5012890;28;20446;-82
2022/01/26 11:25:48;;;;;;;27.43;12.33;;;;;;;-1.20;53.44;99396.41;5012474;28;20488;-83
2022/01/26 11:28:15;;;;;;;24.13;11.70;;;;;;;0.60;54.08;99710.84;5012832;28;20417;-82
2022/01/26 11:30:41;;;;;;;27.03;12.27;;;;;;;1.08;53.75;99751.56;5013217;28;20462;-81
2022/01/26 11:33:19;;;;;;;25.70;11.97;;;;;;;2.64;53.51;99967.03;5012926;28;20414;-81
2022/01/26 11:35:48;;;;;;;35.70;12.50;;;;;;;1.71;53.45;99791.94;5013603;28;20180;-82
2022/01/26 11:46:51;;;;;;;37.40;17.00;;;;;;;3.63;51.85;99950.97;5013338;28;20460;-82
2022/01/26 11:49:23;;;;;;;23.73;11.00;;;;;;;1.53;51.64;99560.91;5012117;28;20465;-82
2022/01/26 11:51:51;;;;;;;22.10;10.20;;;;;;;2.93;52.13;99777.81;5011835;28;20512;-82
2022/01/26 11:54:18;;;;;;;21.10;8.53;;;;;;;4.22;53.43;99963.19;5012863;28;20409;-83
2022/01/26 11:57:04;;;;;;;36.47;15.63;;;;;;;4.42;53.37;99953.91;4995858;28;20834;-82
2022/01/26 11:59:33;;;;;;;41.70;11.70;;;;;;;2.51;53.35;99644.47;5013296;28;20464;-82
2022/01/26 12:02:02;;;;;;;23.20;10.73;;;;;;;3.47;53.53;99817.16;5009691;28;20409;-82
2022/01/26 12:04:32;;;;;;;20.00;9.03;;;;;;;3.77;53.85;99910.38;5034074;28;20441;-83
2022/01/26 12:07:09;;;;;;;41.77;19.93;;;;;;;4.00;54.39;99903.03;5022343;28;20425;-83
2022/01/26 12:09:35;;;;;;;26.83;11.80;;;;;;;1.88;54.16;99575.31;5014107;28;20531;-82
2022/01/26 12:12:00;;;;;;;20.03;10.97;;;;;;;2.39;54.69;99669.34;5014826;28;20492;-83
2022/01/26 12:14:26;;;;;;;17.60;8.30;;;;;;;1.69;55.62;99568.88;4995631;28;20232;-80
2022/01/26 12:16:55;;;;;;;18.57;8.77;;;;;;;3.87;55.16;99921.25;4995548;28;20632;-83
2022/01/26 12:19:35;;;;;;;18.70;8.97;;;;;;;3.81;55.47;99935.81;5007329;28;20701;-82
2022/01/26 12:36:16;;;;;;;16.13;7.33;;;;;;;4.40;53.71;99937.00;5016036;28;20425;-82
2022/01/26 12:38:46;;;;;;;19.07;7.90;;;;;;;3.03;54.17;99716.88;5016951;28;20496;-82
2022/01/26 12:43:48;;;;;;;12.90;7.23;;;;;;;4.28;54.10;99931.06;5017103;28;20990;-82
2022/01/26 12:46:20;;;;;;;13.40;7.20;;;;;;;4.11;53.89;99917.25;5016164;28;20440;-83
2022/01/26 12:49:08;;;;;;;14.63;6.60;;;;;;;3.68;53.44;99847.94;5016549;28;20800;-82
2022/01/26 12:51:42;;;;;;;32.67;14.80;;;;;;;3.75;54.18;99839.28;5015458;28;20421;-81
2022/01/26 12:54:07;;;;;;;30.83;13.47;;;;;;;4.27;53.14;99929.31;5016270;28;20915;-82
2022/01/26 12:56:33;;;;;;;22.53;10.33;;;;;;;3.21;53.62;99773.34;4998428;28;20425;-83
2022/01/26 12:59:11;;;;;;;36.97;15.63;;;;;;;3.90;53.60;99855.50;5015934;28;20209;-83
2022/01/26 13:01:38;;;;;;;27.47;12.13;;;;;;;3.83;53.81;99818.22;5016762;28;20161;-83
2022/01/26 13:04:05;;;;;;;25.37;10.70;;;;;;;4.31;54.03;99926.31;5017698;28;20409;-83
2022/01/26 13:06:35;;;;;;;27.97;13.77;;;;;;;4.20;54.88;99929.63;5016184;28;20409;-82
2022/01/26 13:09:17;;;;;;;26.30;9.23;;;;;;;4.21;53.80;99924.72;5015677;28;20397;-82
2022/01/26 13:11:45;;;;;;;20.80;11.07;;;;;;;4.02;54.13;99883.97;5015641;28;20496;-82
2022/01/26 13:14:19;;;;;;;19.93;10.03;;;;;;;3.46;53.12;99759.47;5015460;28;20750;-82
2022/01/26 13:39:04;;;;;;;29.60;14.30;;;;;;;3.28;53.79;99763.06;4993383;28;20437;-83
2022/01/26 13:58:04;;;;;;;78.03;25.07;;;;;;;2.98;54.47;99747.41;4916449;29;20204;-82
2022/01/26 14:00:37;;;;;;;80.97;23.20;;;;;;;4.13;54.28;99944.19;4915557;29;20434;-82
2022/01/26 14:03:05;;;;;;;40.53;20.30;;;;;;;2.37;54.49;99649.25;4900037;29;20434;-81
2022/01/26 14:05:31;;;;;;;29.63;12.87;;;;;;;1.99;54.88;99589.53;4914989;29;20438;-84
2022/01/26 14:07:57;;;;;;;25.03;13.53;;;;;;;2.94;55.06;99752.03;4901033;29;20422;-81
2022/01/26 14:10:23;;;;;;;34.77;17.97;;;;;;;4.23;55.09;99934.88;4916989;29;20590;-83
2022/01/26 14:12:49;;;;;;;39.43;17.40;;;;;;;3.99;55.11;99897.16;4916801;29;20770;-82